sensor_id;sensor_type;location;lat;lon;timestamp;P1;durP1;ratioP1;P2;durP2;ratioP2
8407;SDS011;4241;48.452;9.216;2022-09-09T00:01:25;470.43;;;193.17;;
8407;SDS011;4241;48.452;9.216;2022-09-09T00:04:03;471.10;;;193.93;;
8407;SDS011;4241;48.452;9.216;2022-09-09T00:06:43;470.90;;;192.50;;
8407;SDS011;4241;48.452;9.216;2022-09-09T00:09:13;472.37;;;195.67;;
8407;SDS011;4241;48.452;9.216;2022-09-09T00:11:43;472.27;;;196.00;;
8407;SDS011;4241;48.452;9.216;2022-09-09T00:14:16;472.73;;;196.97;;
8407;SDS011;4241;48.452;9.216;2022-09-09T00:16:50;472.70;;;196.50;;
8407;SDS011;4241;48.452;9.216;2022-09-09T00:19:24;472.40;;;196.90;;
8407;SDS011;4241;48.452;9.216;2022-09-09T00:21:59;471.97;;;197.10;;
8407;SDS011;4241;48.452;9.216;2022-09-09T00:24:41;471.33;;;193.40;;
8407;SDS011;4241;48.452;9.216;2022-09-09T00:27:12;472.33;;;196.13;;
8407;SDS011;4241;48.452;9.216;2022-09-09T00:29:45;471.03;;;193.90;;
8407;SDS011;4241;48.452;9.216;2022-09-09T00:32:19;471.87;;;195.00;;
8407;SDS011;4241;48.452;9.216;2022-09-09T00:34:49;471.57;;;194.43;;
8407;SDS011;4241;48.452;9.216;2022-09-09T00:37:19;470.17;;;191.97;;
8407;SDS011;4241;48.452;9.216;2022-09-09T00:39:48;470.83;;;191.23;;
8407;SDS011;4241;48.452;9.216;2022-09-09T00:42:20;470.83;;;191.83;;
8407;SDS011;4241;48.452;9.216;2022-09-09T00:44:56;471.53;;;193.60;;
8407;SDS011;4241;48.452;9.216;2022-09-09T00:47:36;472.07;;;193.10;;
8407;SDS011;4241;48.452;9.216;2022-09-09T00:50:12;471.90;;;195.03;;
8407;SDS011;4241;48.452;9.216;2022-09-09T00:53:00;471.43;;;192.90;;
8407;SDS011;4241;48.452;9.216;2022-09-09T00:55:38;471.07;;;193.07;;
8407;SDS011;4241;48.452;9.216;2022-09-09T00:58:10;472.13;;;196.53;;
8407;SDS011;4241;48.452;9.216;2022-09-09T01:00:39;471.03;;;193.87;;
8407;SDS011;4241;48.452;9.216;2022-09-09T01:03:17;471.60;;;194.50;;
8407;SDS011;4241;48.452;9.216;2022-09-09T01:05:51;470.13;;;189.90;;
8407;SDS011;4241;48.452;9.216;2022-09-09T01:08:50;471.83;;;191.17;;
8407;SDS011;4241;48.452;9.216;2022-09-09T01:11:26;469.67;;;189.67;;
8407;SDS011;4241;48.452;9.216;2022-09-09T01:14:01;470.70;;;190.33;;
8407;SDS011;4241;48.452;9.216;2022-09-09T01:16:37;468.57;;;188.17;;
8407;SDS011;4241;48.452;9.216;2022-09-09T01:19:06;469.33;;;188.93;;
8407;SDS011;4241;48.452;9.216;2022-09-09T01:21:39;469.37;;;187.27;;
8407;SDS011;4241;48.452;9.216;2022-09-09T01:24:19;468.80;;;185.73;;
8407;SDS011;4241;48.452;9.216;2022-09-09T01:26:54;468.77;;;185.30;;
8407;SDS011;4241;48.452;9.216;2022-09-09T01:29:25;467.70;;;184.37;;
8407;SDS011;4241;48.452;9.216;2022-09-09T01:31:52;466.87;;;183.10;;
8407;SDS011;4241;48.452;9.216;2022-09-09T01:34:21;466.63;;;180.50;;
8407;SDS011;4241;48.452;9.216;2022-09-09T01:36:49;465.17;;;180.13;;
8407;SDS011;4241;48.452;9.216;2022-09-09T01:39:22;465.80;;;182.07;;
8407;SDS011;4241;48.452;9.216;2022-09-09T01:41:49;463.90;;;178.23;;
8407;SDS011;4241;48.452;9.216;2022-09-09T01:44:17;464.77;;;181.87;;
8407;SDS011;4241;48.452;9.216;2022-09-09T01:46:45;467.37;;;181.73;;
8407;SDS011;4241;48.452;9.216;2022-09-09T01:49:12;466.30;;;183.27;;
8407;SDS011;4241;48.452;9.216;2022-09-09T01:51:39;463.67;;;179.53;;
8407;SDS011;4241;48.452;9.216;2022-09-09T01:54:08;463.63;;;179.53;;
8407;SDS011;4241;48.452;9.216;2022-09-09T01:56:45;464.20;;;179.60;;
8407;SDS011;4241;48.452;9.216;2022-09-09T01:59:24;461.50;;;177.33;;
8407;SDS011;4241;48.452;9.216;2022-09-09T02:02:06;462.90;;;179.23;;
8407;SDS011;4241;48.452;9.216;2022-09-09T02:04:37;459.50;;;173.97;;
8407;SDS011;4241;48.452;9.216;2022-09-09T02:07:06;462.10;;;179.40;;
8407;SDS011;4241;48.452;9.216;2022-09-09T02:09:39;460.17;;;175.70;;
8407;SDS011;4241;48.452;9.216;2022-09-09T02:12:11;460.63;;;177.07;;
8407;SDS011;4241;48.452;9.216;2022-09-09T02:14:49;459.33;;;174.77;;
8407;SDS011;4241;48.452;9.216;2022-09-09T02:17:22;458.17;;;175.53;;
8407;SDS011;4241;48.452;9.216;2022-09-09T02:19:54;457.07;;;172.17;;
8407;SDS011;4241;48.452;9.216;2022-09-09T02:22:26;459.23;;;174.63;;
8407;SDS011;4241;48.452;9.216;2022-09-09T02:24:55;458.23;;;173.27;;
8407;SDS011;4241;48.452;9.216;2022-09-09T02:27:24;457.80;;;173.37;;
8407;SDS011;4241;48.452;9.216;2022-09-09T02:29:53;458.33;;;173.27;;
8407;SDS011;4241;48.452;9.216;2022-09-09T02:32:23;457.77;;;173.47;;
8407;SDS011;4241;48.452;9.216;2022-09-09T02:34:51;459.57;;;176.23;;
8407;SDS011;4241;48.452;9.216;2022-09-09T02:37:22;459.67;;;177.17;;
8407;SDS011;4241;48.452;9.216;2022-09-09T02:39:53;460.00;;;175.23;;
8407;SDS011;4241;48.452;9.216;2022-09-09T02:42:20;460.00;;;177.30;;
8407;SDS011;4241;48.452;9.216;2022-09-09T02:44:49;459.23;;;174.47;;
8407;SDS011;4241;48.452;9.216;2022-09-09T02:47:27;461.53;;;178.67;;
8407;SDS011;4241;48.452;9.216;2022-09-09T02:50:02;457.80;;;173.40;;
8407;SDS011;4241;48.452;9.216;2022-09-09T02:52:36;457.80;;;174.10;;
8407;SDS011;4241;48.452;9.216;2022-09-09T02:55:12;459.80;;;177.17;;
8407;SDS011;4241;48.452;9.216;2022-09-09T02:57:46;460.80;;;174.90;;
8407;SDS011;4241;48.452;9.216;2022-09-09T03:00:14;459.87;;;176.63;;
8407;SDS011;4241;48.452;9.216;2022-09-09T03:02:45;461.23;;;178.40;;
8407;SDS011;4241;48.452;9.216;2022-09-09T03:05:12;462.33;;;181.30;;
8407;SDS011;4241;48.452;9.216;2022-09-09T03:07:39;480.37;;;198.20;;
8407;SDS011;4241;48.452;9.216;2022-09-09T03:10:07;461.90;;;179.47;;
8407;SDS011;4241;48.452;9.216;2022-09-09T03:12:35;461.20;;;179.50;;
8407;SDS011;4241;48.452;9.216;2022-09-09T03:15:02;461.37;;;179.07;;
8407;SDS011;4241;48.452;9.216;2022-09-09T03:17:29;461.60;;;178.73;;
8407;SDS011;4241;48.452;9.216;2022-09-09T03:19:57;462.50;;;179.43;;
8407;SDS011;4241;48.452;9.216;2022-09-09T03:22:24;461.30;;;177.60;;
8407;SDS011;4241;48.452;9.216;2022-09-09T03:24:51;459.40;;;172.47;;
8407;SDS011;4241;48.452;9.216;2022-09-09T03:27:18;460.97;;;179.27;;
8407;SDS011;4241;48.452;9.216;2022-09-09T03:29:45;460.90;;;172.50;;
8407;SDS011;4241;48.452;9.216;2022-09-09T03:32:12;460.27;;;176.73;;
8407;SDS011;4241;48.452;9.216;2022-09-09T03:34:39;461.07;;;178.23;;
8407;SDS011;4241;48.452;9.216;2022-09-09T03:37:07;461.27;;;178.27;;
8407;SDS011;4241;48.452;9.216;2022-09-09T03:39:34;460.13;;;177.07;;
8407;SDS011;4241;48.452;9.216;2022-09-09T03:42:00;458.37;;;175.33;;
8407;SDS011;4241;48.452;9.216;2022-09-09T03:44:29;459.70;;;174.07;;
8407;SDS011;4241;48.452;9.216;2022-09-09T03:46:56;459.27;;;176.67;;
8407;SDS011;4241;48.452;9.216;2022-09-09T03:49:25;461.20;;;178.13;;
8407;SDS011;4241;48.452;9.216;2022-09-09T03:51:53;460.30;;;177.07;;
8407;SDS011;4241;48.452;9.216;2022-09-09T03:54:22;460.20;;;176.70;;
8407;SDS011;4241;48.452;9.216;2022-09-09T03:56:50;460.30;;;176.37;;
8407;SDS011;4241;48.452;9.216;2022-09-09T03:59:16;459.93;;;177.30;;
8407;SDS011;4241;48.452;9.216;2022-09-09T04:01:43;459.13;;;175.67;;
8407;SDS011;4241;48.452;9.216;2022-09-09T04:04:12;460.20;;;177.03;;
8407;SDS011;4241;48.452;9.216;2022-09-09T04:06:38;459.13;;;175.03;;
8407;SDS011;4241;48.452;9.216;2022-09-09T04:09:05;459.03;;;175.83;;
8407;SDS011;4241;48.452;9.216;2022-09-09T04:11:34;457.83;;;175.70;;
8407;SDS011;4241;48.452;9.216;2022-09-09T04:14:02;458.40;;;174.30;;
8407;SDS011;4241;48.452;9.216;2022-09-09T04:16:31;457.13;;;173.80;;
8407;SDS011;4241;48.452;9.216;2022-09-09T04:18:57;455.47;;;172.30;;
8407;SDS011;4241;48.452;9.216;2022-09-09T04:21:25;454.33;;;170.60;;
8407;SDS011;4241;48.452;9.216;2022-09-09T04:23:52;455.60;;;172.13;;
8407;SDS011;4241;48.452;9.216;2022-09-09T04:26:18;455.77;;;172.47;;
8407;SDS011;4241;48.452;9.216;2022-09-09T04:28:47;453.03;;;171.03;;
8407;SDS011;4241;48.452;9.216;2022-09-09T04:31:15;452.63;;;169.70;;
8407;SDS011;4241;48.452;9.216;2022-09-09T04:33:43;451.60;;;168.80;;
8407;SDS011;4241;48.452;9.216;2022-09-09T04:36:11;450.87;;;168.27;;
8407;SDS011;4241;48.452;9.216;2022-09-09T04:38:38;455.47;;;173.30;;
8407;SDS011;4241;48.452;9.216;2022-09-09T04:41:05;454.13;;;171.83;;
8407;SDS011;4241;48.452;9.216;2022-09-09T04:43:32;450.77;;;169.67;;
8407;SDS011;4241;48.452;9.216;2022-09-09T04:46:00;449.90;;;167.97;;
8407;SDS011;4241;48.452;9.216;2022-09-09T04:48:27;456.10;;;173.80;;
8407;SDS011;4241;48.452;9.216;2022-09-09T04:50:55;451.03;;;167.60;;
8407;SDS011;4241;48.452;9.216;2022-09-09T04:53:22;450.33;;;167.13;;
8407;SDS011;4241;48.452;9.216;2022-09-09T04:55:50;450.97;;;170.43;;
8407;SDS011;4241;48.452;9.216;2022-09-09T04:58:17;452.63;;;171.13;;
8407;SDS011;4241;48.452;9.216;2022-09-09T05:00:46;448.83;;;169.03;;
8407;SDS011;4241;48.452;9.216;2022-09-09T05:03:14;449.20;;;168.10;;
8407;SDS011;4241;48.452;9.216;2022-09-09T05:05:41;447.37;;;165.60;;
8407;SDS011;4241;48.452;9.216;2022-09-09T05:08:08;446.43;;;167.97;;
8407;SDS011;4241;48.452;9.216;2022-09-09T05:10:36;450.40;;;172.40;;
8407;SDS011;4241;48.452;9.216;2022-09-09T05:13:04;445.83;;;169.43;;
8407;SDS011;4241;48.452;9.216;2022-09-09T05:15:31;446.13;;;168.87;;
8407;SDS011;4241;48.452;9.216;2022-09-09T05:17:58;446.10;;;167.37;;
8407;SDS011;4241;48.452;9.216;2022-09-09T05:20:27;445.40;;;164.77;;
8407;SDS011;4241;48.452;9.216;2022-09-09T05:22:54;445.53;;;167.13;;
8407;SDS011;4241;48.452;9.216;2022-09-09T05:25:21;444.93;;;166.57;;
8407;SDS011;4241;48.452;9.216;2022-09-09T05:27:49;444.77;;;165.60;;
8407;SDS011;4241;48.452;9.216;2022-09-09T05:30:16;445.27;;;164.87;;
8407;SDS011;4241;48.452;9.216;2022-09-09T05:32:43;446.33;;;168.27;;
8407;SDS011;4241;48.452;9.216;2022-09-09T05:35:11;443.43;;;164.90;;
8407;SDS011;4241;48.452;9.216;2022-09-09T05:37:39;445.27;;;165.07;;
8407;SDS011;4241;48.452;9.216;2022-09-09T05:40:06;446.60;;;167.00;;
8407;SDS011;4241;48.452;9.216;2022-09-09T05:42:34;447.70;;;167.67;;
8407;SDS011;4241;48.452;9.216;2022-09-09T05:45:01;448.53;;;169.07;;
8407;SDS011;4241;48.452;9.216;2022-09-09T05:47:27;450.43;;;170.97;;
8407;SDS011;4241;48.452;9.216;2022-09-09T05:49:54;448.67;;;168.07;;
8407;SDS011;4241;48.452;9.216;2022-09-09T05:52:21;450.47;;;169.93;;
8407;SDS011;4241;48.452;9.216;2022-09-09T05:54:50;452.40;;;173.33;;
8407;SDS011;4241;48.452;9.216;2022-09-09T05:57:16;453.03;;;173.70;;
8407;SDS011;4241;48.452;9.216;2022-09-09T05:59:44;451.63;;;170.57;;
8407;SDS011;4241;48.452;9.216;2022-09-09T06:02:11;451.63;;;170.33;;
8407;SDS011;4241;48.452;9.216;2022-09-09T06:04:38;452.03;;;172.73;;
8407;SDS011;4241;48.452;9.216;2022-09-09T06:07:05;452.30;;;172.37;;
8407;SDS011;4241;48.452;9.216;2022-09-09T06:09:33;450.20;;;172.80;;
8407;SDS011;4241;48.452;9.216;2022-09-09T06:12:01;452.67;;;174.83;;
8407;SDS011;4241;48.452;9.216;2022-09-09T06:14:28;453.17;;;173.23;;
8407;SDS011;4241;48.452;9.216;2022-09-09T06:16:55;452.90;;;171.30;;
8407;SDS011;4241;48.452;9.216;2022-09-09T06:19:22;455.57;;;174.57;;
8407;SDS011;4241;48.452;9.216;2022-09-09T06:21:51;454.40;;;174.23;;
8407;SDS011;4241;48.452;9.216;2022-09-09T06:24:18;457.50;;;177.00;;
8407;SDS011;4241;48.452;9.216;2022-09-09T06:26:45;457.20;;;175.73;;
8407;SDS011;4241;48.452;9.216;2022-09-09T06:29:13;460.23;;;179.20;;
8407;SDS011;4241;48.452;9.216;2022-09-09T06:31:40;457.27;;;177.33;;
8407;SDS011;4241;48.452;9.216;2022-09-09T06:34:07;458.73;;;176.47;;
8407;SDS011;4241;48.452;9.216;2022-09-09T06:36:35;461.40;;;180.40;;
8407;SDS011;4241;48.452;9.216;2022-09-09T06:39:03;460.77;;;178.70;;
8407;SDS011;4241;48.452;9.216;2022-09-09T06:41:31;458.77;;;179.30;;
8407;SDS011;4241;48.452;9.216;2022-09-09T06:43:59;463.53;;;181.93;;
8407;SDS011;4241;48.452;9.216;2022-09-09T06:46:27;464.67;;;185.03;;
8407;SDS011;4241;48.452;9.216;2022-09-09T06:48:57;464.83;;;184.40;;
8407;SDS011;4241;48.452;9.216;2022-09-09T06:51:25;464.27;;;183.97;;
8407;SDS011;4241;48.452;9.216;2022-09-09T06:53:53;465.23;;;185.23;;
8407;SDS011;4241;48.452;9.216;2022-09-09T06:56:22;466.37;;;186.33;;
8407;SDS011;4241;48.452;9.216;2022-09-09T06:58:51;465.67;;;185.67;;
8407;SDS011;4241;48.452;9.216;2022-09-09T07:01:20;466.23;;;188.63;;
8407;SDS011;4241;48.452;9.216;2022-09-09T07:03:50;465.90;;;187.80;;
8407;SDS011;4241;48.452;9.216;2022-09-09T07:06:20;468.93;;;192.10;;
8407;SDS011;4241;48.452;9.216;2022-09-09T07:08:50;469.20;;;193.73;;
8407;SDS011;4241;48.452;9.216;2022-09-09T07:11:18;468.07;;;191.77;;
8407;SDS011;4241;48.452;9.216;2022-09-09T07:13:46;470.17;;;193.30;;
8407;SDS011;4241;48.452;9.216;2022-09-09T07:16:15;472.10;;;194.10;;
8407;SDS011;4241;48.452;9.216;2022-09-09T07:18:43;470.40;;;196.30;;
8407;SDS011;4241;48.452;9.216;2022-09-09T07:21:12;471.53;;;198.27;;
8407;SDS011;4241;48.452;9.216;2022-09-09T07:23:40;473.40;;;199.17;;
8407;SDS011;4241;48.452;9.216;2022-09-09T07:26:08;473.20;;;200.60;;
8407;SDS011;4241;48.452;9.216;2022-09-09T07:28:36;477.93;;;204.30;;
8407;SDS011;4241;48.452;9.216;2022-09-09T07:31:03;472.50;;;202.13;;
8407;SDS011;4241;48.452;9.216;2022-09-09T07:33:31;474.53;;;204.80;;
8407;SDS011;4241;48.452;9.216;2022-09-09T07:36:04;474.27;;;203.37;;
8407;SDS011;4241;48.452;9.216;2022-09-09T07:38:38;480.67;;;212.03;;
8407;SDS011;4241;48.452;9.216;2022-09-09T07:41:06;477.60;;;209.77;;
8407;SDS011;4241;48.452;9.216;2022-09-09T07:43:36;478.17;;;206.93;;
8407;SDS011;4241;48.452;9.216;2022-09-09T07:46:03;476.47;;;209.23;;
8407;SDS011;4241;48.452;9.216;2022-09-09T07:48:31;483.77;;;218.87;;
8407;SDS011;4241;48.452;9.216;2022-09-09T07:51:05;476.83;;;211.30;;
8407;SDS011;4241;48.452;9.216;2022-09-09T07:53:33;480.17;;;216.93;;
8407;SDS011;4241;48.452;9.216;2022-09-09T07:56:07;479.00;;;214.93;;
8407;SDS011;4241;48.452;9.216;2022-09-09T07:58:35;482.30;;;219.37;;
8407;SDS011;4241;48.452;9.216;2022-09-09T08:01:05;484.30;;;222.27;;
8407;SDS011;4241;48.452;9.216;2022-09-09T08:03:34;480.57;;;220.23;;
8407;SDS011;4241;48.452;9.216;2022-09-09T08:06:01;481.53;;;222.67;;
8407;SDS011;4241;48.452;9.216;2022-09-09T08:08:29;485.27;;;226.13;;
8407;SDS011;4241;48.452;9.216;2022-09-09T08:11:03;480.30;;;222.37;;
8407;SDS011;4241;48.452;9.216;2022-09-09T08:13:34;478.93;;;218.67;;
8407;SDS011;4241;48.452;9.216;2022-09-09T08:16:08;481.67;;;223.40;;
8407;SDS011;4241;48.452;9.216;2022-09-09T08:18:36;484.20;;;227.83;;
8407;SDS011;4241;48.452;9.216;2022-09-09T08:21:07;482.23;;;225.53;;
8407;SDS011;4241;48.452;9.216;2022-09-09T08:23:37;481.40;;;224.70;;
8407;SDS011;4241;48.452;9.216;2022-09-09T08:26:09;481.43;;;224.87;;
8407;SDS011;4241;48.452;9.216;2022-09-09T08:28:39;485.87;;;233.77;;
8407;SDS011;4241;48.452;9.216;2022-09-09T08:31:07;482.77;;;227.70;;
8407;SDS011;4241;48.452;9.216;2022-09-09T08:33:35;481.07;;;226.27;;
8407;SDS011;4241;48.452;9.216;2022-09-09T08:36:03;481.40;;;226.37;;
8407;SDS011;4241;48.452;9.216;2022-09-09T08:38:30;480.90;;;222.87;;
8407;SDS011;4241;48.452;9.216;2022-09-09T08:40:59;481.17;;;223.30;;
8407;SDS011;4241;48.452;9.216;2022-09-09T08:43:36;481.23;;;223.33;;
8407;SDS011;4241;48.452;9.216;2022-09-09T08:46:07;480.63;;;222.47;;
8407;SDS011;4241;48.452;9.216;2022-09-09T08:48:44;482.00;;;224.23;;
8407;SDS011;4241;48.452;9.216;2022-09-09T08:51:19;479.63;;;221.07;;
8407;SDS011;4241;48.452;9.216;2022-09-09T08:53:46;481.13;;;224.43;;
8407;SDS011;4241;48.452;9.216;2022-09-09T08:56:16;480.77;;;223.20;;
8407;SDS011;4241;48.452;9.216;2022-09-09T08:58:49;481.10;;;223.67;;
8407;SDS011;4241;48.452;9.216;2022-09-09T09:01:22;481.87;;;225.13;;
8407;SDS011;4241;48.452;9.216;2022-09-09T09:04:06;481.27;;;223.07;;
8407;SDS011;4241;48.452;9.216;2022-09-09T09:06:49;482.70;;;227.13;;
8407;SDS011;4241;48.452;9.216;2022-09-09T09:09:21;483.03;;;229.23;;
8407;SDS011;4241;48.452;9.216;2022-09-09T09:11:53;486.23;;;237.53;;
8407;SDS011;4241;48.452;9.216;2022-09-09T09:14:27;485.70;;;239.83;;
8407;SDS011;4241;48.452;9.216;2022-09-09T09:16:58;487.80;;;245.57;;
8407;SDS011;4241;48.452;9.216;2022-09-09T09:19:28;489.07;;;250.23;;
8407;SDS011;4241;48.452;9.216;2022-09-09T09:21:58;490.47;;;255.10;;
8407;SDS011;4241;48.452;9.216;2022-09-09T09:24:31;492.10;;;257.70;;
8407;SDS011;4241;48.452;9.216;2022-09-09T09:27:10;491.47;;;257.80;;
8407;SDS011;4241;48.452;9.216;2022-09-09T09:29:41;491.77;;;254.57;;
8407;SDS011;4241;48.452;9.216;2022-09-09T09:32:10;491.23;;;259.63;;
8407;SDS011;4241;48.452;9.216;2022-09-09T09:34:42;498.40;;;265.43;;
8407;SDS011;4241;48.452;9.216;2022-09-09T09:37:15;493.70;;;265.87;;
8407;SDS011;4241;48.452;9.216;2022-09-09T09:39:47;490.97;;;261.53;;
8407;SDS011;4241;48.452;9.216;2022-09-09T09:42:15;492.37;;;268.70;;
8407;SDS011;4241;48.452;9.216;2022-09-09T09:44:44;492.97;;;271.43;;
8407;SDS011;4241;48.452;9.216;2022-09-09T09:47:12;496.17;;;273.17;;
8407;SDS011;4241;48.452;9.216;2022-09-09T09:49:50;495.00;;;275.83;;
8407;SDS011;4241;48.452;9.216;2022-09-09T09:52:20;494.23;;;277.03;;
8407;SDS011;4241;48.452;9.216;2022-09-09T09:54:48;495.17;;;280.30;;
8407;SDS011;4241;48.452;9.216;2022-09-09T09:57:16;496.17;;;285.90;;
8407;SDS011;4241;48.452;9.216;2022-09-09T09:59:45;497.67;;;286.87;;
8407;SDS011;4241;48.452;9.216;2022-09-09T10:02:16;497.37;;;288.20;;
8407;SDS011;4241;48.452;9.216;2022-09-09T10:04:45;497.20;;;289.90;;
8407;SDS011;4241;48.452;9.216;2022-09-09T10:07:12;498.97;;;292.27;;
8407;SDS011;4241;48.452;9.216;2022-09-09T10:09:43;499.87;;;292.33;;
8407;SDS011;4241;48.452;9.216;2022-09-09T10:12:14;497.43;;;289.80;;
8407;SDS011;4241;48.452;9.216;2022-09-09T10:14:51;495.90;;;282.87;;
8407;SDS011;4241;48.452;9.216;2022-09-09T10:17:26;495.07;;;283.10;;
8407;SDS011;4241;48.452;9.216;2022-09-09T10:20:06;495.13;;;282.67;;
8407;SDS011;4241;48.452;9.216;2022-09-09T10:22:45;495.13;;;279.60;;
8407;SDS011;4241;48.452;9.216;2022-09-09T10:25:26;497.10;;;279.47;;
8407;SDS011;4241;48.452;9.216;2022-09-09T10:31:00;493.97;;;271.20;;
8407;SDS011;4241;48.452;9.216;2022-09-09T10:33:37;493.00;;;274.17;;
8407;SDS011;4241;48.452;9.216;2022-09-09T10:36:13;494.10;;;277.93;;
8407;SDS011;4241;48.452;9.216;2022-09-09T10:38:46;494.73;;;279.30;;
8407;SDS011;4241;48.452;9.216;2022-09-09T10:41:18;494.53;;;278.97;;
8407;SDS011;4241;48.452;9.216;2022-09-09T10:43:54;496.03;;;287.57;;
8407;SDS011;4241;48.452;9.216;2022-09-09T10:46:48;495.23;;;284.60;;
8407;SDS011;4241;48.452;9.216;2022-09-09T10:49:33;495.47;;;286.53;;
8407;SDS011;4241;48.452;9.216;2022-09-09T10:52:17;495.00;;;282.67;;
8407;SDS011;4241;48.452;9.216;2022-09-09T10:54:53;498.70;;;285.70;;
8407;SDS011;4241;48.452;9.216;2022-09-09T10:57:27;497.47;;;280.77;;
8407;SDS011;4241;48.452;9.216;2022-09-09T11:00:02;498.60;;;284.73;;
8407;SDS011;4241;48.452;9.216;2022-09-09T11:02:33;500.40;;;291.50;;
8407;SDS011;4241;48.452;9.216;2022-09-09T11:05:02;498.03;;;291.20;;
8407;SDS011;4241;48.452;9.216;2022-09-09T11:07:34;500.73;;;290.43;;
8407;SDS011;4241;48.452;9.216;2022-09-09T11:10:07;499.67;;;295.73;;
8407;SDS011;4241;48.452;9.216;2022-09-09T11:12:45;500.70;;;295.97;;
8407;SDS011;4241;48.452;9.216;2022-09-09T11:15:17;497.90;;;298.60;;
8407;SDS011;4241;48.452;9.216;2022-09-09T11:17:48;501.03;;;295.10;;
8407;SDS011;4241;48.452;9.216;2022-09-09T11:20:19;503.33;;;305.00;;
8407;SDS011;4241;48.452;9.216;2022-09-09T11:22:47;501.67;;;303.07;;
8407;SDS011;4241;48.452;9.216;2022-09-09T11:25:19;501.80;;;302.30;;
8407;SDS011;4241;48.452;9.216;2022-09-09T11:27:53;505.90;;;307.77;;
8407;SDS011;4241;48.452;9.216;2022-09-09T11:30:32;501.63;;;300.93;;
8407;SDS011;4241;48.452;9.216;2022-09-09T11:33:21;504.17;;;306.67;;
8407;SDS011;4241;48.452;9.216;2022-09-09T11:36:13;498.90;;;303.13;;
8407;SDS011;4241;48.452;9.216;2022-09-09T11:38:55;500.60;;;307.07;;
8407;SDS011;4241;48.452;9.216;2022-09-09T11:41:33;499.43;;;303.90;;
8407;SDS011;4241;48.452;9.216;2022-09-09T11:44:09;498.43;;;300.23;;
8407;SDS011;4241;48.452;9.216;2022-09-09T11:46:38;498.60;;;297.27;;
8407;SDS011;4241;48.452;9.216;2022-09-09T11:49:21;498.20;;;291.13;;
8407;SDS011;4241;48.452;9.216;2022-09-09T11:51:53;495.23;;;279.23;;
8407;SDS011;4241;48.452;9.216;2022-09-09T11:54:29;495.87;;;281.53;;
8407;SDS011;4241;48.452;9.216;2022-09-09T11:56:57;495.33;;;279.90;;
8407;SDS011;4241;48.452;9.216;2022-09-09T11:59:26;498.30;;;280.97;;
8407;SDS011;4241;48.452;9.216;2022-09-09T12:01:55;494.10;;;270.50;;
8407;SDS011;4241;48.452;9.216;2022-09-09T12:04:29;492.47;;;267.70;;
8407;SDS011;4241;48.452;9.216;2022-09-09T12:06:59;491.93;;;262.23;;
8407;SDS011;4241;48.452;9.216;2022-09-09T12:09:29;492.63;;;265.23;;
8407;SDS011;4241;48.452;9.216;2022-09-09T12:12:24;490.80;;;259.83;;
8407;SDS011;4241;48.452;9.216;2022-09-09T12:15:15;490.00;;;259.87;;
8407;SDS011;4241;48.452;9.216;2022-09-09T12:17:46;491.20;;;264.20;;
8407;SDS011;4241;48.452;9.216;2022-09-09T12:20:17;493.50;;;265.10;;
8407;SDS011;4241;48.452;9.216;2022-09-09T12:22:56;492.67;;;265.20;;
8407;SDS011;4241;48.452;9.216;2022-09-09T12:25:41;492.07;;;264.93;;
8407;SDS011;4241;48.452;9.216;2022-09-09T12:28:19;495.37;;;269.00;;
8407;SDS011;4241;48.452;9.216;2022-09-09T12:30:49;493.07;;;270.70;;
8407;SDS011;4241;48.452;9.216;2022-09-09T12:33:24;490.30;;;264.40;;
8407;SDS011;4241;48.452;9.216;2022-09-09T12:36:02;492.07;;;268.30;;
8407;SDS011;4241;48.452;9.216;2022-09-09T12:38:32;497.57;;;273.63;;
8407;SDS011;4241;48.452;9.216;2022-09-09T12:41:02;493.17;;;269.23;;
8407;SDS011;4241;48.452;9.216;2022-09-09T12:43:29;492.63;;;268.17;;
8407;SDS011;4241;48.452;9.216;2022-09-09T12:45:57;491.70;;;267.77;;
8407;SDS011;4241;48.452;9.216;2022-09-09T12:48:30;499.43;;;271.73;;
8407;SDS011;4241;48.452;9.216;2022-09-09T12:51:01;491.77;;;267.50;;
8407;SDS011;4241;48.452;9.216;2022-09-09T12:53:31;492.83;;;268.60;;
8407;SDS011;4241;48.452;9.216;2022-09-09T12:56:02;492.23;;;266.43;;
8407;SDS011;4241;48.452;9.216;2022-09-09T12:58:32;498.60;;;272.30;;
8407;SDS011;4241;48.452;9.216;2022-09-09T13:01:00;491.10;;;263.37;;
8407;SDS011;4241;48.452;9.216;2022-09-09T13:03:30;492.03;;;265.40;;
8407;SDS011;4241;48.452;9.216;2022-09-09T13:05:58;492.23;;;264.70;;
8407;SDS011;4241;48.452;9.216;2022-09-09T13:08:37;495.43;;;269.70;;
8407;SDS011;4241;48.452;9.216;2022-09-09T13:11:04;491.83;;;264.83;;
8407;SDS011;4241;48.452;9.216;2022-09-09T13:13:35;492.83;;;268.83;;
8407;SDS011;4241;48.452;9.216;2022-09-09T13:16:05;492.57;;;267.93;;
8407;SDS011;4241;48.452;9.216;2022-09-09T13:18:35;498.50;;;273.47;;
8407;SDS011;4241;48.452;9.216;2022-09-09T13:21:05;493.17;;;270.57;;
8407;SDS011;4241;48.452;9.216;2022-09-09T13:23:33;490.10;;;263.00;;
8407;SDS011;4241;48.452;9.216;2022-09-09T13:26:04;493.80;;;270.90;;
8407;SDS011;4241;48.452;9.216;2022-09-09T13:28:32;499.63;;;275.53;;
8407;SDS011;4241;48.452;9.216;2022-09-09T13:31:00;494.00;;;270.20;;
8407;SDS011;4241;48.452;9.216;2022-09-09T13:33:32;491.23;;;266.53;;
8407;SDS011;4241;48.452;9.216;2022-09-09T13:36:01;492.03;;;267.50;;
8407;SDS011;4241;48.452;9.216;2022-09-09T13:38:31;497.17;;;270.10;;
8407;SDS011;4241;48.452;9.216;2022-09-09T13:41:02;493.13;;;270.23;;
8407;SDS011;4241;48.452;9.216;2022-09-09T13:43:34;492.87;;;269.87;;
8407;SDS011;4241;48.452;9.216;2022-09-09T13:46:04;492.80;;;270.00;;
8407;SDS011;4241;48.452;9.216;2022-09-09T13:48:32;498.20;;;273.33;;
8407;SDS011;4241;48.452;9.216;2022-09-09T13:51:00;491.43;;;266.67;;
8407;SDS011;4241;48.452;9.216;2022-09-09T13:53:30;492.03;;;264.60;;
8407;SDS011;4241;48.452;9.216;2022-09-09T13:55:58;491.33;;;263.13;;
8407;SDS011;4241;48.452;9.216;2022-09-09T13:58:27;499.33;;;269.90;;
8407;SDS011;4241;48.452;9.216;2022-09-09T14:00:55;490.87;;;265.27;;
8407;SDS011;4241;48.452;9.216;2022-09-09T14:03:22;494.33;;;270.50;;
8407;SDS011;4241;48.452;9.216;2022-09-09T14:05:49;493.10;;;270.07;;
8407;SDS011;4241;48.452;9.216;2022-09-09T14:08:23;493.93;;;269.23;;
8407;SDS011;4241;48.452;9.216;2022-09-09T14:10:51;491.80;;;265.73;;
8407;SDS011;4241;48.452;9.216;2022-09-09T14:13:24;495.47;;;265.63;;
8407;SDS011;4241;48.452;9.216;2022-09-09T14:15:52;493.93;;;264.70;;
8407;SDS011;4241;48.452;9.216;2022-09-09T14:18:19;500.30;;;273.17;;
8407;SDS011;4241;48.452;9.216;2022-09-09T14:20:47;493.17;;;266.50;;
8407;SDS011;4241;48.452;9.216;2022-09-09T14:23:15;494.83;;;269.23;;
8407;SDS011;4241;48.452;9.216;2022-09-09T14:25:42;494.13;;;266.30;;
8407;SDS011;4241;48.452;9.216;2022-09-09T14:28:10;494.17;;;266.33;;
8407;SDS011;4241;48.452;9.216;2022-09-09T14:30:38;494.87;;;261.80;;
8407;SDS011;4241;48.452;9.216;2022-09-09T14:33:08;495.13;;;263.10;;
8407;SDS011;4241;48.452;9.216;2022-09-09T14:35:37;494.37;;;264.23;;
8407;SDS011;4241;48.452;9.216;2022-09-09T14:38:05;496.67;;;268.10;;
8407;SDS011;4241;48.452;9.216;2022-09-09T14:40:33;495.30;;;267.23;;
8407;SDS011;4241;48.452;9.216;2022-09-09T14:43:01;492.87;;;264.53;;
8407;SDS011;4241;48.452;9.216;2022-09-09T14:45:28;496.30;;;270.93;;